Startpagina
METAR-TAF:

METAR-TAF

Vliegvelden :

Aeroporto Internacional Hercílio Luz

Florianópolis, Santa Catarina, Brazilië

breedte: 27-40S, lengte: 048-33W, hoogte: 5 m

Actueel weer

Dit bericht is 30 minuten geleden gemaakt, om 18:00 UTC
Wind 9 kt uit het oostzuidoosten
Temperatuur 20°C
Vochtigheid 53%
Druk 1020 hPa
Zicht 10 km of meer
geen wolken onder 1500 m en geen cumulonimbus

METAR: SBFL 031800Z 11009KT CAVOK 20/10 Q1020

Tijdstip: 15:30 (18:30 UTC)

Verwachting

Dit bericht is 3 uur en het 30 minuten geleden gemaakt, om 15:00 UTC
Verwachting geldig van 03 om 18 UTC tot 04 om 18 UTC
Wind 5 kt uit het oostzuidoosten
Zicht 10 km of meer
Weinig wolken op 3000 ft
Wijzigt naar
van 04 om 00 UTC tot 04 om 02 UTC
Gebroken wolken op 3000 ft

TAF: SBFL 031500Z 0318/0418 12005KT 9999 FEW030 TN15/0408Z TX21/0416Z BECMG 0400/0402 BKN030 RMK PDW

Waarnemingen en weersverwachtingen van meer dan 4000 vliegvelden (METAR en TAF).

De beschikbare stations zijn de gele en rode punten op de kaart.

Ga met uw muis naar het station om de naam te zien.

Klik dan om waarnemingen en weersverwachtingen te zien.

kaart wijzigen: klik op de groene knoppen met een zwart kruis om in te zoomen, op de groene knop met een streepje om uit te zoomen of op de groene pijlen voor aangrenzende kaarten.


METAR-TAF: